Time;durP1;ratioP1;P1;durP2;ratioP2;P2;SDS_P1;SDS_P2;PMS_P1;PMS_P2;Temp;Humidity;BMP_temperature;BMP_pressure;BME280_temperature;BME280_humidity;BME280_pressure;Samples;Min_cycle;Max_cycle;Signal;HPM_P1;HPM_P2
2022/08/03 00:00:32;;;;;;;6.07;3.40;;;22.00;99.90;;;;;;5088622;28;20681;-78
2022/08/03 00:03:00;;;;;;;4.97;3.65;;;22.20;99.90;;;;;;5097079;28;20218;-79
2022/08/03 00:05:27;;;;;;;4.38;2.92;;;22.30;99.90;;;;;;5091706;28;20204;-78
2022/08/03 00:07:55;;;;;;;2.67;2.47;;;22.40;99.90;;;;;;5111144;28;20197;-78
2022/08/03 00:10:22;;;;;;;2.53;2.30;;;22.60;99.90;;;;;;5086047;28;20201;-78
2022/08/03 00:12:50;;;;;;;3.25;2.10;;;22.70;99.90;;;;;;5096951;28;20193;-78
2022/08/03 00:15:18;;;;;;;2.55;2.17;;;22.80;99.90;;;;;;5097017;28;20675;-79
2022/08/03 00:17:50;;;;;;;2.08;1.88;;;22.90;99.90;;;;;;5088661;28;20561;-79
2022/08/03 00:20:17;;;;;;;3.38;2.40;;;22.90;99.90;;;;;;5089446;28;20197;-78
2022/08/03 00:22:45;;;;;;;3.33;2.38;;;22.90;99.90;;;;;;5087373;28;20236;-78
2022/08/03 00:25:12;;;;;;;3.70;2.20;;;22.90;99.90;;;;;;5091465;28;20193;-78
2022/08/03 00:27:40;;;;;;;2.38;2.17;;;22.90;99.90;;;;;;5091847;28;20208;-77
2022/08/03 00:30:08;;;;;;;3.10;2.47;;;22.90;99.90;;;;;;5094984;28;20193;-78
2022/08/03 00:32:36;;;;;;;3.40;2.10;;;22.90;99.90;;;;;;5094547;28;20213;-78
2022/08/03 00:35:06;;;;;;;3.97;2.10;;;22.90;99.90;;;;;;5080206;28;20208;-78
2022/08/03 00:37:33;;;;;;;2.45;2.00;;;22.90;99.90;;;;;;5088944;28;20201;-79
2022/08/03 00:40:01;;;;;;;2.28;2.08;;;22.90;99.90;;;;;;5085776;28;20215;-78
2022/08/03 00:42:28;;;;;;;3.40;2.15;;;22.80;99.90;;;;;;5088810;28;20232;-79
2022/08/03 00:44:56;;;;;;;3.25;2.25;;;22.80;99.90;;;;;;5096283;28;20201;-78
2022/08/03 00:47:23;;;;;;;3.15;2.00;;;22.80;99.90;;;;;;5095886;28;20208;-78
2022/08/03 00:49:51;;;;;;;3.60;2.20;;;22.90;99.90;;;;;;5092385;28;20212;-77
2022/08/03 00:52:20;;;;;;;3.72;2.30;;;23.00;99.90;;;;;;5094206;28;20219;-79
2022/08/03 00:54:47;;;;;;;1.98;1.77;;;23.10;99.90;;;;;;5093509;28;20205;-78
2022/08/03 00:57:15;;;;;;;4.57;1.95;;;23.10;99.90;;;;;;5112994;28;20209;-78
2022/08/03 00:59:42;;;;;;;3.65;2.05;;;23.10;99.90;;;;;;5095978;28;20196;-78
2022/08/03 01:02:10;;;;;;;1.92;1.73;;;23.10;99.90;;;;;;5093402;28;20534;-78
2022/08/03 01:04:37;;;;;;;2.50;2.30;;;23.10;99.90;;;;;;5089557;28;20186;-77
2022/08/03 01:07:13;;;;;;;3.42;2.17;;;23.00;99.90;;;;;;5090295;28;20542;-78
2022/08/03 01:09:57;;;;;;;2.83;2.15;;;23.10;99.90;;;;;;5087406;28;20208;-79
2022/08/03 01:12:32;;;;;;;2.53;2.05;;;23.10;99.90;;;;;;5090036;28;20587;-78
2022/08/03 01:15:07;;;;;;;4.63;2.25;;;23.20;99.90;;;;;;5089947;28;20205;-78
2022/08/03 01:17:40;;;;;;;2.30;1.75;;;23.10;99.90;;;;;;5095682;28;20196;-78
2022/08/03 01:20:10;;;;;;;2.45;2.00;;;23.10;99.90;;;;;;5095053;28;20201;-78
2022/08/03 01:22:51;;;;;;;3.53;2.28;;;23.10;99.90;;;;;;5085690;28;20232;-78
2022/08/03 01:25:31;;;;;;;3.47;2.20;;;23.10;99.90;;;;;;5094168;28;20193;-78
2022/08/03 01:28:19;;;;;;;3.08;1.98;;;23.00;99.90;;;;;;5088819;28;20201;-78
2022/08/03 01:30:50;;;;;;;2.30;2.10;;;23.00;99.90;;;;;;5094021;28;20208;-79
2022/08/03 01:33:22;;;;;;;3.10;2.28;;;23.10;99.90;;;;;;5094571;28;20200;-78
2022/08/03 01:35:58;;;;;;;5.95;1.92;;;23.00;99.90;;;;;;5093981;28;20205;-78
2022/08/03 01:38:29;;;;;;;2.92;2.10;;;23.00;99.90;;;;;;5095941;28;20215;-78
2022/08/03 01:40:57;;;;;;;3.05;2.30;;;23.00;99.90;;;;;;5090439;28;20217;-78
2022/08/03 01:43:27;;;;;;;3.00;2.08;;;22.90;99.90;;;;;;5092801;28;20599;-78
2022/08/03 01:45:57;;;;;;;4.45;2.25;;;22.90;99.90;;;;;;5087073;28;20196;-77
2022/08/03 01:48:27;;;;;;;3.88;2.05;;;22.90;99.90;;;;;;5106318;28;20211;-78
2022/08/03 01:50:56;;;;;;;4.93;2.10;;;23.00;99.90;;;;;;5107180;28;20221;-78
2022/08/03 01:53:25;;;;;;;2.92;2.28;;;23.00;99.90;;;;;;5092663;28;20193;-78
2022/08/03 01:55:57;;;;;;;3.75;2.17;;;22.90;99.90;;;;;;5090091;28;20201;-78
2022/08/03 01:58:25;;;;;;;3.00;1.98;;;22.80;99.90;;;;;;5089518;28;20215;-78
2022/08/03 02:00:58;;;;;;;3.47;2.13;;;22.90;99.90;;;;;;5090204;28;20225;-78
2022/08/03 02:03:28;;;;;;;4.00;2.10;;;23.00;99.90;;;;;;5091096;28;20228;-78
2022/08/03 02:05:57;;;;;;;4.95;2.15;;;23.00;99.90;;;;;;5090075;28;20193;-78
2022/08/03 02:08:27;;;;;;;2.63;1.83;;;23.00;99.90;;;;;;5086517;28;20197;-78
2022/08/03 02:10:56;;;;;;;3.00;2.38;;;23.10;99.90;;;;;;5092166;28;20225;-78
2022/08/03 02:13:25;;;;;;;4.85;2.38;;;23.00;99.90;;;;;;5094082;28;20689;-78
2022/08/03 02:15:54;;;;;;;4.47;2.65;;;22.80;99.90;;;;;;5092781;28;20197;-78
2022/08/03 02:18:22;;;;;;;3.63;2.35;;;22.70;99.90;;;;;;5093177;28;20666;-78
2022/08/03 02:20:52;;;;;;;3.67;2.40;;;22.60;99.90;;;;;;5077565;28;20583;-78
2022/08/03 02:23:19;;;;;;;3.90;2.22;;;22.60;99.90;;;;;;5085222;28;20213;-78
2022/08/03 02:25:50;;;;;;;5.60;2.15;;;22.60;99.90;;;;;;5086295;28;20212;-77
2022/08/03 02:28:21;;;;;;;2.92;2.45;;;22.60;99.90;;;;;;5082028;28;20205;-78
2022/08/03 02:30:54;;;;;;;3.25;2.10;;;22.50;99.90;;;;;;5091513;28;20224;-78
2022/08/03 02:33:27;;;;;;;4.30;2.67;;;22.80;99.90;;;;;;5083797;28;20201;-78
2022/08/03 02:35:57;;;;;;;4.13;2.60;;;22.90;99.90;;;;;;5091434;28;20204;-78
2022/08/03 02:38:30;;;;;;;4.38;2.42;;;22.90;99.90;;;;;;5091709;28;20201;-78
2022/08/03 02:41:00;;;;;;;5.40;2.40;;;22.60;99.90;;;;;;5085331;28;20228;-77
2022/08/03 02:43:31;;;;;;;2.65;2.15;;;22.50;99.90;;;;;;5085610;28;20205;-78
2022/08/03 02:45:59;;;;;;;3.60;2.13;;;22.30;99.90;;;;;;5082600;28;20197;-78
2022/08/03 02:48:31;;;;;;;3.13;2.25;;;22.10;99.90;;;;;;5091307;28;20204;-78
2022/08/03 02:51:00;;;;;;;2.88;2.58;;;22.30;99.90;;;;;;5084983;28;20565;-78
2022/08/03 02:53:30;;;;;;;4.65;3.03;;;22.30;99.90;;;;;;5090507;28;20274;-78
2022/08/03 02:55:59;;;;;;;2.95;2.28;;;22.10;99.90;;;;;;5087255;28;20208;-78
2022/08/03 02:58:28;;;;;;;3.63;2.28;;;22.00;99.90;;;;;;5084467;28;20211;-78
2022/08/03 03:00:57;;;;;;;3.85;2.80;;;22.00;99.90;;;;;;5104981;28;20216;-78
2022/08/03 03:03:25;;;;;;;3.13;2.60;;;22.10;99.90;;;;;;5086202;28;20228;-78
2022/08/03 03:05:53;;;;;;;4.05;2.17;;;22.00;99.90;;;;;;5088886;28;20201;-78
2022/08/03 03:08:23;;;;;;;4.57;2.63;;;21.90;99.90;;;;;;5088631;28;20682;-77
2022/08/03 03:10:51;;;;;;;2.80;2.60;;;21.90;99.90;;;;;;5082395;28;20228;-78
2022/08/03 03:13:20;;;;;;;3.38;2.67;;;21.90;99.90;;;;;;5080510;28;20200;-78
2022/08/03 03:15:49;;;;;;;3.83;2.30;;;21.70;99.90;;;;;;5079850;28;20209;-78
2022/08/03 03:18:17;;;;;;;4.18;2.67;;;21.50;99.90;;;;;;5092470;28;20197;-78
2022/08/03 03:20:46;;;;;;;3.63;2.53;;;21.50;99.90;;;;;;5094152;28;20232;-78
2022/08/03 03:23:14;;;;;;;5.80;2.88;;;21.40;99.90;;;;;;5094472;28;20217;-77
2022/08/03 03:25:43;;;;;;;2.88;2.55;;;21.40;99.90;;;;;;5087018;28;20201;-78
2022/08/03 03:28:11;;;;;;;2.75;2.42;;;21.30;99.90;;;;;;5096018;28;20196;-78
2022/08/03 03:30:39;;;;;;;3.08;2.45;;;21.40;99.90;;;;;;5079645;28;20209;-78
2022/08/03 03:33:06;;;;;;;3.40;2.50;;;21.50;99.90;;;;;;5078384;28;20200;-78
2022/08/03 03:35:34;;;;;;;4.97;2.70;;;21.30;99.90;;;;;;5089540;28;20197;-78
2022/08/03 03:38:02;;;;;;;5.45;2.97;;;21.10;99.90;;;;;;5092297;28;20208;-78
2022/08/03 03:40:29;;;;;;;4.63;2.97;;;21.20;99.90;;;;;;5089635;28;20204;-77
2022/08/03 03:42:58;;;;;;;2.67;2.47;;;21.00;99.90;;;;;;5094969;28;20216;-78
2022/08/03 03:45:27;;;;;;;4.50;3.03;;;20.90;99.90;;;;;;5094279;28;20201;-77
2022/08/03 03:47:54;;;;;;;3.22;2.67;;;20.80;99.90;;;;;;5094974;28;20561;-78
2022/08/03 03:50:23;;;;;;;2.95;2.65;;;20.90;99.90;;;;;;5090550;28;20200;-78
2022/08/03 03:52:51;;;;;;;4.00;2.70;;;21.10;99.90;;;;;;5089040;28;20190;-78
2022/08/03 03:55:19;;;;;;;4.70;2.78;;;21.10;99.90;;;;;;5091659;28;20208;-78
2022/08/03 03:57:46;;;;;;;3.30;2.80;;;21.10;99.90;;;;;;5097976;28;20197;-77
2022/08/03 04:00:17;;;;;;;8.40;2.90;;;21.10;99.90;;;;;;5094321;28;20204;-79
2022/08/03 04:02:45;;;;;;;3.88;2.88;;;21.10;99.90;;;;;;5091365;28;20239;-79
2022/08/03 04:10:58;;;;;;;5.00;3.13;;;21.50;99.90;;;;;;5088344;28;20227;-78
2022/08/03 04:13:31;;;;;;;4.05;2.40;;;21.10;99.90;;;;;;5095384;28;20536;-78
2022/08/03 04:16:01;;;;;;;3.05;2.78;;;21.00;99.90;;;;;;5092169;28;20190;-78
2022/08/03 04:18:33;;;;;;;3.08;2.78;;;21.00;99.90;;;;;;5095702;28;20204;-78
2022/08/03 04:21:05;;;;;;;3.35;2.55;;;21.00;99.90;;;;;;5088449;28;20574;-78
2022/08/03 04:23:37;;;;;;;3.22;2.55;;;21.10;99.90;;;;;;5095106;28;20213;-78
2022/08/03 04:26:10;;;;;;;4.97;2.42;;;21.10;99.90;;;;;;5086054;28;20198;-78
2022/08/03 04:28:40;;;;;;;3.78;2.85;;;21.30;99.90;;;;;;5090950;28;20197;-79
2022/08/03 04:31:10;;;;;;;3.60;2.47;;;21.40;99.90;;;;;;5095925;28;20212;-79
2022/08/03 04:33:39;;;;;;;3.17;2.50;;;21.40;99.90;;;;;;5091705;28;20190;-79
2022/08/03 04:36:15;;;;;;;2.60;2.40;;;21.30;99.90;;;;;;5090113;28;20193;-79
2022/08/03 04:38:53;;;;;;;7.10;3.33;;;21.30;99.90;;;;;;5110077;28;20204;-79
2022/08/03 04:41:24;;;;;;;3.50;2.65;;;21.20;99.90;;;;;;5085657;28;20262;-78
2022/08/03 04:43:54;;;;;;;5.78;2.60;;;21.30;99.90;;;;;;5084603;28;20220;-81
2022/08/03 04:46:27;;;;;;;3.05;2.78;;;21.60;99.90;;;;;;5088095;28;20197;-79
2022/08/03 04:48:58;;;;;;;7.00;3.08;;;21.70;99.90;;;;;;5085249;28;20190;-79
2022/08/03 04:51:26;;;;;;;3.25;2.95;;;21.70;99.90;;;;;;5086913;28;20224;-79
2022/08/03 04:53:54;;;;;;;3.88;2.70;;;21.60;99.90;;;;;;5090503;28;20204;-79
2022/08/03 04:56:22;;;;;;;3.85;2.90;;;21.30;99.90;;;;;;5089401;28;20224;-79
2022/08/03 04:58:49;;;;;;;4.10;2.65;;;21.50;99.90;;;;;;5081100;28;20204;-79
2022/08/03 05:01:19;;;;;;;4.35;2.72;;;21.80;99.90;;;;;;5088000;28;20232;-79
2022/08/03 05:03:48;;;;;;;4.35;2.72;;;22.20;99.90;;;;;;5086270;28;20232;-79
2022/08/03 05:06:15;;;;;;;4.28;2.33;;;22.30;99.90;;;;;;5089537;28;20201;-79
2022/08/03 05:08:43;;;;;;;3.05;2.50;;;22.30;99.90;;;;;;5088042;28;20197;-80
2022/08/03 05:11:10;;;;;;;3.50;2.40;;;22.30;99.90;;;;;;5086573;28;20232;-79
2022/08/03 05:13:38;;;;;;;4.88;3.10;;;22.30;99.90;;;;;;5082954;28;20194;-79
2022/08/03 05:16:05;;;;;;;3.88;2.78;;;22.50;99.90;;;;;;5082372;28;20661;-79
2022/08/03 05:18:34;;;;;;;4.75;2.85;;;22.40;99.90;;;;;;5091574;28;20543;-79
2022/08/03 05:21:04;;;;;;;3.72;2.47;;;22.20;99.90;;;;;;5080965;28;20217;-80
2022/08/03 05:23:31;;;;;;;4.88;3.03;;;22.20;99.90;;;;;;5080969;28;20227;-79
2022/08/03 05:25:59;;;;;;;4.90;3.47;;;22.20;99.90;;;;;;5082497;28;20208;-79
2022/08/03 05:28:26;;;;;;;5.63;2.63;;;22.20;99.90;;;;;;5085867;28;20201;-79
2022/08/03 05:30:54;;;;;;;2.78;2.35;;;22.30;99.90;;;;;;5081681;28;20218;-79
2022/08/03 05:33:21;;;;;;;3.67;2.85;;;22.40;99.90;;;;;;5086576;28;20197;-79
2022/08/03 05:35:49;;;;;;;3.40;2.53;;;22.50;99.90;;;;;;5091288;28;20682;-80
2022/08/03 05:38:18;;;;;;;4.45;2.95;;;22.50;99.90;;;;;;5089956;28;20202;-80
2022/08/03 05:40:46;;;;;;;4.07;2.65;;;22.70;99.90;;;;;;5087917;28;20243;-78
2022/08/03 05:43:16;;;;;;;4.47;3.25;;;22.80;99.90;;;;;;5086419;28;20209;-78
2022/08/03 05:45:43;;;;;;;2.63;2.42;;;22.80;99.90;;;;;;5082906;28;20193;-79
2022/08/03 05:48:11;;;;;;;3.83;3.13;;;22.80;99.90;;;;;;5084517;28;20208;-79
2022/08/03 05:50:38;;;;;;;4.75;2.85;;;22.90;99.90;;;;;;5091917;28;20197;-80
2022/08/03 05:53:06;;;;;;;6.00;3.10;;;22.80;99.90;;;;;;5093016;28;20204;-81
2022/08/03 05:55:35;;;;;;;5.38;3.22;;;22.80;99.90;;;;;;5088557;28;20642;-81
2022/08/03 05:58:03;;;;;;;9.50;3.40;;;22.90;99.90;;;;;;5080302;28;20198;-81
2022/08/03 06:00:30;;;;;;;5.10;3.47;;;22.90;99.90;;;;;;5085308;28;20194;-80
2022/08/03 06:02:58;;;;;;;4.07;3.40;;;22.90;99.90;;;;;;5084673;28;20207;-80
2022/08/03 06:05:27;;;;;;;5.72;3.50;;;23.00;99.90;;;;;;5107504;28;20217;-81
2022/08/03 06:07:56;;;;;;;4.93;3.63;;;23.10;99.90;;;;;;5085727;28;20190;-80
2022/08/03 06:10:24;;;;;;;6.78;4.32;;;23.00;99.90;;;;;;5086110;28;20205;-80
2022/08/03 06:12:53;;;;;;;4.35;3.70;;;23.20;99.90;;;;;;5083977;28;20633;-81
2022/08/03 06:15:20;;;;;;;4.30;3.90;;;23.30;99.90;;;;;;5087041;28;20212;-80
2022/08/03 06:17:49;;;;;;;5.88;3.80;;;23.30;99.90;;;;;;5086187;28;20196;-80
2022/08/03 06:20:18;;;;;;;5.05;4.00;;;23.30;99.90;;;;;;5081976;28;20201;-80
2022/08/03 06:22:46;;;;;;;4.95;3.70;;;23.40;99.90;;;;;;5102220;22;20216;-80
2022/08/03 06:25:14;;;;;;;6.40;3.95;;;23.50;99.90;;;;;;5078952;28;20247;-82
2022/08/03 06:27:43;;;;;;;5.97;3.75;;;23.60;99.90;;;;;;5075869;28;20201;-82
2022/08/03 06:30:14;;;;;;;5.25;3.97;;;23.60;99.90;;;;;;5092838;28;20268;-82
2022/08/03 06:32:41;;;;;;;5.43;3.63;;;23.80;99.90;;;;;;5074779;28;20208;-82
2022/08/03 06:35:10;;;;;;;5.32;3.50;;;23.80;99.90;;;;;;5098224;28;20198;-80
2022/08/03 06:37:44;;;;;;;6.70;3.95;;;23.80;99.90;;;;;;5072380;28;20205;-81
2022/08/03 06:40:13;;;;;;;9.02;3.70;;;23.90;99.90;;;;;;5072965;28;20197;-80
2022/08/03 06:42:41;;;;;;;4.63;3.42;;;23.90;99.90;;;;;;5074604;28;20205;-81
2022/08/03 06:45:09;;;;;;;4.03;3.63;;;23.90;99.90;;;;;;5090656;28;20236;-81
2022/08/03 06:47:39;;;;;;;5.50;3.80;;;24.00;99.90;;;;;;5074682;28;20198;-79
2022/08/03 06:50:09;;;;;;;4.53;3.53;;;24.10;99.90;;;;;;5085906;28;20200;-81
2022/08/03 06:52:38;;;;;;;4.22;3.28;;;24.20;99.90;;;;;;5075329;28;20208;-81
2022/08/03 06:55:07;;;;;;;6.85;4.00;;;24.30;99.90;;;;;;5079222;28;20189;-81
2022/08/03 06:57:34;;;;;;;5.78;3.70;;;24.30;99.90;;;;;;5074013;28;20201;-80
2022/08/03 07:00:02;;;;;;;4.88;3.70;;;24.40;99.90;;;;;;5078261;28;20694;-80
2022/08/03 07:02:29;;;;;;;5.75;4.07;;;24.50;99.90;;;;;;5070674;28;20198;-78
2022/08/03 07:05:01;;;;;;;6.50;3.47;;;24.50;99.90;;;;;;5069070;28;20251;-79
2022/08/03 07:07:29;;;;;;;4.25;3.00;;;24.50;99.90;;;;;;5086634;28;20197;-79
2022/08/03 07:09:56;;;;;;;7.40;3.17;;;24.60;99.90;;;;;;5069987;28;20205;-78
2022/08/03 07:12:24;;;;;;;4.78;3.50;;;24.70;99.90;;;;;;5073792;28;20237;-80
2022/08/03 07:14:52;;;;;;;4.78;3.28;;;24.80;99.90;;;;;;5075073;28;20222;-81
2022/08/03 07:17:19;;;;;;;9.18;3.42;;;24.90;99.90;;;;;;5077750;28;20208;-79
2022/08/03 07:19:47;;;;;;;5.00;2.90;;;24.90;99.90;;;;;;5072572;28;20193;-79
2022/08/03 07:22:16;;;;;;;4.32;3.00;;;24.90;99.90;;;;;;5085579;28;20202;-80
2022/08/03 07:24:43;;;;;;;5.72;2.70;;;24.90;99.90;;;;;;5090605;28;20226;-80
2022/08/03 07:27:11;;;;;;;4.10;2.38;;;25.00;99.90;;;;;;5080884;28;20205;-80
2022/08/03 07:29:38;;;;;;;3.75;2.47;;;25.10;99.90;;;;;;5076963;28;20222;-80
2022/08/03 07:32:06;;;;;;;5.70;3.72;;;25.10;99.90;;;;;;5083057;28;20201;-79
2022/08/03 07:34:34;;;;;;;4.10;2.88;;;25.10;99.90;;;;;;5080518;28;20218;-81
2022/08/03 07:37:01;;;;;;;5.93;2.80;;;25.10;99.90;;;;;;5086141;28;20196;-81
2022/08/03 07:39:30;;;;;;;7.15;3.05;;;25.00;99.90;;;;;;5077202;28;20212;-79
2022/08/03 07:41:57;;;;;;;4.35;2.53;;;25.10;99.90;;;;;;5071872;28;20194;-81
2022/08/03 07:44:25;;;;;;;4.47;2.78;;;25.20;99.90;;;;;;5081357;28;20217;-81
2022/08/03 07:46:52;;;;;;;4.13;2.40;;;25.20;99.90;;;;;;5074954;28;20201;-81
2022/08/03 07:49:20;;;;;;;3.78;3.03;;;25.30;99.90;;;;;;5069704;28;20190;-80
2022/08/03 07:52:46;;;;;;;3.75;2.83;;;25.30;99.90;;;;;;5077886;28;20198;-81
2022/08/03 07:54:37;;;;;;;8.35;2.53;;;25.40;99.90;;;;;;5079450;28;20221;-81
2022/08/03 07:57:05;;;;;;;4.78;3.42;;;25.50;99.90;;;;;;5068239;28;20202;-80
2022/08/03 07:59:34;;;;;;;4.95;3.58;;;25.60;99.90;;;;;;5077766;28;20455;-80
2022/08/03 08:02:01;;;;;;;5.47;3.08;;;25.60;99.90;;;;;;5077682;28;20191;-81
2022/08/03 08:04:29;;;;;;;4.38;3.17;;;25.70;99.90;;;;;;5075397;28;20232;-81
2022/08/03 08:06:56;;;;;;;4.20;2.88;;;25.80;99.90;;;;;;5073781;28;20933;-81
2022/08/03 08:09:24;;;;;;;4.85;2.95;;;25.70;99.90;;;;;;5096727;28;20201;-79
2022/08/03 08:11:53;;;;;;;3.97;2.85;;;25.80;99.90;;;;;;5103686;28;20197;-81
2022/08/03 08:14:21;;;;;;;5.68;3.13;;;25.90;99.60;;;;;;5073890;28;20214;-79
2022/08/03 08:16:48;;;;;;;4.88;2.63;;;26.10;99.70;;;;;;5074844;28;20209;-81
2022/08/03 08:19:16;;;;;;;4.38;3.15;;;26.10;98.80;;;;;;5087338;28;20194;-81
2022/08/03 08:21:44;;;;;;;4.43;2.72;;;26.20;98.50;;;;;;5095407;28;20217;-80
2022/08/03 08:24:11;;;;;;;4.63;2.83;;;26.30;97.70;;;;;;5084372;28;20588;-81
2022/08/03 08:26:42;;;;;;;6.10;3.03;;;26.30;97.40;;;;;;5086723;28;20210;-81
2022/08/03 08:29:11;;;;;;;3.47;2.65;;;26.30;97.30;;;;;;5099674;28;20204;-81
2022/08/03 08:31:38;;;;;;;3.55;3.03;;;26.40;97.50;;;;;;5084877;28;20662;-81
2022/08/03 08:34:08;;;;;;;4.80;2.75;;;26.50;97.40;;;;;;5093558;28;20216;-81
2022/08/03 08:36:36;;;;;;;5.85;3.17;;;26.60;97.00;;;;;;5090767;28;20555;-80
2022/08/03 08:39:04;;;;;;;5.43;2.95;;;26.70;96.40;;;;;;5082626;28;20188;-81
2022/08/03 08:41:33;;;;;;;4.25;2.95;;;26.70;96.40;;;;;;5087871;28;20208;-81
2022/08/03 08:44:01;;;;;;;4.82;3.25;;;26.70;95.70;;;;;;5085916;28;20210;-80
2022/08/03 08:46:32;;;;;;;5.35;3.05;;;26.80;95.30;;;;;;5089653;28;20214;-80
2022/08/03 08:49:01;;;;;;;6.40;2.55;;;26.80;95.10;;;;;;5073103;28;20198;-80
2022/08/03 08:51:40;;;;;;;4.20;2.97;;;26.70;94.50;;;;;;5084432;28;20205;-81
2022/08/03 08:54:08;;;;;;;3.53;2.70;;;26.80;95.10;;;;;;5075752;28;20213;-82
2022/08/03 08:56:37;;;;;;;4.97;2.70;;;26.80;94.70;;;;;;5088314;28;20190;-82
2022/08/03 08:59:05;;;;;;;6.47;2.60;;;26.90;94.30;;;;;;5072854;28;20198;-82
2022/08/03 09:01:34;;;;;;;2.83;2.63;;;27.00;94.70;;;;;;5079587;28;20209;-81
2022/08/03 09:04:02;;;;;;;5.18;2.80;;;27.00;94.00;;;;;;5079698;28;20229;-82
2022/08/03 09:06:29;;;;;;;4.22;3.13;;;27.00;93.90;;;;;;5078138;28;20209;-82
2022/08/03 09:08:57;;;;;;;4.78;2.92;;;27.10;93.30;;;;;;5078364;28;20564;-82
2022/08/03 09:11:24;;;;;;;4.47;3.03;;;27.10;93.40;;;;;;5077797;28;20205;-81
2022/08/03 09:13:52;;;;;;;4.75;3.00;;;27.10;93.50;;;;;;5064299;28;20218;-81
2022/08/03 09:16:28;;;;;;;5.60;3.15;;;27.20;93.60;;;;;;5071075;28;20566;-80
2022/08/03 09:19:13;;;;;;;5.15;3.20;;;27.10;93.80;;;;;;5077086;28;20205;-80
2022/08/03 09:21:41;;;;;;;4.13;2.55;;;27.30;93.80;;;;;;5084076;28;20194;-81
2022/08/03 09:24:08;;;;;;;5.00;2.22;;;27.40;92.60;;;;;;5078832;28;20237;-80
2022/08/03 09:26:39;;;;;;;4.85;2.50;;;27.50;93.00;;;;;;5090511;28;20217;-80
2022/08/03 09:29:09;;;;;;;4.00;2.45;;;27.60;92.70;;;;;;5076369;28;20568;-81
2022/08/03 09:31:39;;;;;;;5.35;2.80;;;27.50;92.00;;;;;;5077477;28;20202;-80
2022/08/03 09:34:14;;;;;;;7.53;2.90;;;27.50;92.30;;;;;;5069635;28;20587;-81
2022/08/03 09:36:52;;;;;;;3.17;2.50;;;27.60;92.30;;;;;;5090314;28;20209;-80
2022/08/03 09:39:22;;;;;;;4.50;2.50;;;27.60;92.20;;;;;;5078242;28;20673;-81
2022/08/03 09:42:12;;;;;;;3.90;2.35;;;27.60;92.80;;;;;;5076992;28;20208;-80
2022/08/03 09:44:42;;;;;;;3.70;2.53;;;27.70;92.80;;;;;;5072346;28;20225;-80
2022/08/03 09:47:10;;;;;;;4.65;2.50;;;27.80;91.90;;;;;;5072029;28;20214;-81
2022/08/03 09:49:41;;;;;;;4.18;2.53;;;27.60;91.70;;;;;;5069244;28;20205;-80
2022/08/03 09:52:14;;;;;;;5.35;2.20;;;27.70;91.40;;;;;;5064136;28;20204;-80
2022/08/03 09:54:43;;;;;;;2.88;2.15;;;27.70;91.30;;;;;;5076491;28;20221;-80
2022/08/03 09:57:22;;;;;;;3.25;2.40;;;27.80;91.30;;;;;;5086428;28;20251;-81
2022/08/03 09:59:51;;;;;;;3.63;2.30;;;27.80;91.20;;;;;;5088051;28;20209;-81
2022/08/03 10:02:23;;;;;;;3.83;1.90;;;27.80;90.60;;;;;;5062329;28;20204;-81
2022/08/03 10:04:53;;;;;;;4.20;2.08;;;27.90;89.60;;;;;;5083925;28;20217;-82
2022/08/03 10:07:22;;;;;;;3.47;2.13;;;28.00;90.50;;;;;;5082322;28;20816;-80
2022/08/03 10:09:57;;;;;;;2.50;2.05;;;28.00;90.10;;;;;;5088179;28;20197;-81
2022/08/03 10:12:25;;;;;;;5.15;2.08;;;28.00;90.00;;;;;;5085460;28;20209;-81
2022/08/03 10:14:54;;;;;;;4.90;2.13;;;28.00;89.80;;;;;;5084016;28;20217;-81
2022/08/03 10:17:22;;;;;;;3.42;2.25;;;28.10;90.10;;;;;;5074812;28;20194;-81
2022/08/03 10:19:51;;;;;;;5.85;2.30;;;27.90;89.80;;;;;;5071362;28;20190;-81
2022/08/03 10:22:22;;;;;;;4.43;2.45;;;27.80;88.80;;;;;;5074789;28;20201;-81
2022/08/03 10:24:55;;;;;;;4.80;1.98;;;28.00;89.00;;;;;;5092684;28;20225;-81
2022/08/03 10:27:24;;;;;;;5.50;2.10;;;28.10;88.40;;;;;;5087552;28;20217;-79
2022/08/03 10:29:54;;;;;;;4.00;2.33;;;28.10;88.30;;;;;;5072479;28;20207;-79
2022/08/03 10:32:27;;;;;;;3.63;2.20;;;28.10;87.90;;;;;;5073177;28;20198;-79
2022/08/03 10:35:03;;;;;;;5.60;2.95;;;28.20;87.60;;;;;;5087005;28;20237;-79
2022/08/03 10:37:32;;;;;;;3.92;2.40;;;28.20;88.30;;;;;;5092408;28;20193;-79
2022/08/03 10:40:01;;;;;;;3.80;2.50;;;28.30;87.50;;;;;;5079708;28;20200;-79
2022/08/03 10:42:31;;;;;;;3.40;2.20;;;28.40;88.00;;;;;;5080654;28;20204;-79
2022/08/03 10:45:04;;;;;;;4.20;2.72;;;28.40;87.30;;;;;;5076537;28;20232;-79
2022/08/03 10:47:32;;;;;;;5.22;2.90;;;28.40;87.30;;;;;;5078520;28;20205;-79
2022/08/03 10:50:03;;;;;;;5.53;3.17;;;28.40;87.70;;;;;;5086615;28;20197;-79
2022/08/03 10:52:55;;;;;;;3.25;2.30;;;28.50;89.00;;;;;;5076771;28;20205;-80
2022/08/03 10:58:49;;;;;;;3.03;2.70;;;28.40;87.40;;;;;;5075841;28;20233;-79
2022/08/03 11:01:40;;;;;;;3.22;2.67;;;28.50;88.80;;;;;;5069067;28;20216;-80
2022/08/03 11:04:20;;;;;;;5.07;2.45;;;28.50;89.20;;;;;;5071829;28;20223;-79
2022/08/03 11:07:19;;;;;;;3.75;1.80;;;28.50;85.60;;;;;;5081178;28;20212;-78
2022/08/03 11:09:48;;;;;;;4.65;1.90;;;28.60;85.60;;;;;;5072271;28;20206;-79
2022/08/03 11:12:26;;;;;;;3.70;2.00;;;28.70;83.50;;;;;;5081561;28;20209;-78
2022/08/03 11:14:54;;;;;;;5.30;1.88;;;28.90;82.30;;;;;;5084057;28;20220;-80
2022/08/03 11:17:22;;;;;;;4.53;1.88;;;28.80;81.80;;;;;;5097691;28;20201;-80
2022/08/03 11:19:54;;;;;;;3.72;1.90;;;28.80;82.10;;;;;;5083184;28;20216;-79
2022/08/03 11:22:23;;;;;;;4.60;1.85;;;28.90;83.00;;;;;;5093207;28;20208;-79
2022/08/03 11:25:00;;;;;;;4.43;1.60;;;29.10;83.40;;;;;;5079265;28;20224;-80
2022/08/03 11:27:30;;;;;;;3.60;1.70;;;29.20;80.90;;;;;;5089797;28;20217;-80
2022/08/03 11:30:05;;;;;;;4.15;1.48;;;29.30;77.90;;;;;;5078082;28;20201;-80
2022/08/03 11:32:57;;;;;;;3.20;1.63;;;29.30;77.90;;;;;;5073876;28;20193;-79
2022/08/03 11:35:27;;;;;;;3.83;2.30;;;29.40;78.60;;;;;;5089063;28;20197;-79
2022/08/03 11:38:07;;;;;;;4.28;1.90;;;29.50;79.50;;;;;;5089156;28;20192;-79
2022/08/03 11:40:38;;;;;;;7.38;2.30;;;29.60;78.80;;;;;;5091230;28;20197;-79
2022/08/03 11:43:07;;;;;;;4.43;1.73;;;29.80;79.30;;;;;;5081573;28;20236;-79
2022/08/03 11:45:39;;;;;;;4.53;1.98;;;29.70;78.00;;;;;;5082707;28;20194;-79
2022/08/03 11:48:15;;;;;;;4.70;2.05;;;29.80;79.40;;;;;;5080497;28;20209;-79
2022/08/03 11:50:45;;;;;;;5.25;2.35;;;29.80;78.30;;;;;;5080827;28;20224;-80
2022/08/03 11:53:18;;;;;;;4.82;1.80;;;29.80;77.30;;;;;;5075456;28;20214;-81
2022/08/03 11:55:48;;;;;;;6.03;2.15;;;30.00;74.80;;;;;;5094549;28;20193;-79
2022/08/03 11:58:17;;;;;;;5.40;2.17;;;29.90;72.70;;;;;;5079143;28;20191;-79
2022/08/03 12:00:45;;;;;;;3.70;2.20;;;29.90;73.80;;;;;;5094112;28;20204;-79
2022/08/03 12:03:14;;;;;;;3.47;2.20;;;29.90;73.30;;;;;;5096483;28;20221;-79
2022/08/03 12:05:46;;;;;;;4.88;2.50;;;30.00;73.20;;;;;;5080076;28;20201;-79
2022/08/03 12:08:15;;;;;;;4.47;1.83;;;30.30;74.40;;;;;;5079895;28;20212;-79
2022/08/03 12:10:49;;;;;;;3.10;1.70;;;30.40;72.50;;;;;;5073264;28;20214;-79
2022/08/03 12:13:18;;;;;;;4.03;1.80;;;30.50;71.80;;;;;;5078783;28;20300;-79
2022/08/03 12:15:51;;;;;;;2.95;1.80;;;30.50;71.40;;;;;;5084806;28;20212;-79
2022/08/03 12:18:21;;;;;;;3.92;2.42;;;30.70;71.90;;;;;;5092923;28;20200;-78
2022/08/03 12:20:51;;;;;;;3.50;1.83;;;30.80;69.10;;;;;;5077085;28;20202;-78
2022/08/03 12:23:19;;;;;;;5.40;1.58;;;30.40;68.50;;;;;;5074044;28;20240;-78
2022/08/03 12:25:48;;;;;;;3.47;1.77;;;30.50;67.50;;;;;;5075490;28;20667;-78
2022/08/03 12:28:18;;;;;;;2.72;1.98;;;30.60;70.00;;;;;;5069705;28;20214;-78
2022/08/03 12:30:48;;;;;;;4.10;2.20;;;30.70;69.40;;;;;;5075800;28;20202;-78
2022/08/03 12:33:23;;;;;;;5.13;2.03;;;30.80;68.60;;;;;;5078900;28;20213;-79
2022/08/03 12:36:05;;;;;;;2.33;1.75;;;31.00;69.40;;;;;;5069943;28;20197;-79
2022/08/03 12:38:33;;;;;;;6.20;1.77;;;31.00;65.40;;;;;;5080707;28;20209;-78
2022/08/03 12:41:04;;;;;;;4.68;1.50;;;31.00;66.10;;;;;;5082740;28;20216;-79
2022/08/03 12:43:32;;;;;;;4.47;1.90;;;31.20;66.40;;;;;;5082240;28;20230;-79
2022/08/03 12:46:13;;;;;;;2.83;1.42;;;31.20;66.00;;;;;;5077914;28;20206;-79
2022/08/03 12:49:07;;;;;;;4.50;1.75;;;31.40;66.20;;;;;;5079548;28;20229;-79
2022/08/03 12:51:37;;;;;;;7.50;1.77;;;31.60;64.60;;;;;;5071732;28;20209;-79
2022/08/03 12:54:06;;;;;;;3.63;1.63;;;31.60;64.60;;;;;;5083734;28;20233;-79
2022/08/03 12:56:35;;;;;;;5.00;1.77;;;31.90;63.00;;;;;;5076035;28;20205;-79
2022/08/03 12:59:24;;;;;;;3.47;1.55;;;31.60;61.70;;;;;;5077212;28;20200;-80
2022/08/03 13:01:52;;;;;;;2.83;1.40;;;31.70;61.80;;;;;;5083567;28;20202;-80
2022/08/03 13:04:26;;;;;;;3.30;1.20;;;31.70;61.90;;;;;;5073621;28;20224;-80
2022/08/03 13:06:58;;;;;;;2.08;1.25;;;31.80;62.10;;;;;;5080722;28;20197;-81
2022/08/03 13:09:26;;;;;;;2.05;1.40;;;32.00;61.60;;;;;;5087976;28;20189;-80
2022/08/03 13:12:15;;;;;;;4.18;1.58;;;31.70;61.90;;;;;;5074573;28;20638;-79